Terminal Aerodrome Forecast
Issued by NWS

Home | Current Version | Previous Version | Text Only | Print | Product List | Glossary On
Versions: 1 2 3 4 5 6 7 8 9 10 11 12 13 14 15 16 17 18 19 20 21 22 23 24 25 26 27 28 29 30 31 32 33 34 35 36 37 38 39 40 41 42 43 44
000
FTUS41 KILN 261138
TAFLCK
TAF
KLCK 261138Z 2612/2712 30012G18KT P6SM -SHRA SCT015 OVC035
     FM261300 29014G22KT P6SM -SHRA OVC015
     FM261500 30016G26KT P6SM VCSH BKN018
     FM261800 31018G30KT P6SM VCSH BKN025
     FM262100 30016G28KT P6SM FEW030 BKN080
     FM270000 29012G20KT P6SM SCT250
     FM270700 30012KT P6SM SCT250=

USA.gov is the U.S. government's official web portal to all federal, state and local government web resources and services.